createdAt,value
2023-12-09T00:09:38.784Z,99900.0
2023-12-09T00:11:38.736Z,99900.0
2023-12-09T00:15:38.729Z,99900.0
2023-12-09T00:35:38.762Z,99890.0
2023-12-09T00:43:38.756Z,99880.0
2023-12-09T00:51:38.799Z,99890.0
2023-12-09T00:59:38.778Z,99900.0
2023-12-09T01:01:38.747Z,99900.0
2023-12-09T01:17:38.806Z,99900.0
2023-12-09T01:23:38.782Z,99900.0
2023-12-09T01:27:38.775Z,99900.0
2023-12-09T01:31:38.785Z,99910.0
2023-12-09T01:33:38.903Z,99910.0
2023-12-09T01:37:38.796Z,99910.0
2023-12-09T01:39:38.766Z,99910.0
2023-12-09T01:47:38.793Z,99920.0
2023-12-09T01:55:38.795Z,99910.0
2023-12-09T02:07:38.808Z,99910.0
2023-12-09T02:13:38.833Z,99910.0
2023-12-09T02:19:39.052Z,99910.0
2023-12-09T02:23:38.800Z,99900.0
2023-12-09T02:31:38.825Z,99910.0
2023-12-09T02:35:38.832Z,99920.0
2023-12-09T02:37:38.807Z,99920.0
2023-12-09T02:39:38.819Z,99920.0
2023-12-09T02:45:38.892Z,99910.0
2023-12-09T02:47:38.883Z,99910.0
2023-12-09T02:49:38.884Z,99910.0
2023-12-09T02:51:38.815Z,99910.0
2023-12-09T02:53:38.816Z,99920.0
2023-12-09T02:55:38.816Z,99920.0
2023-12-09T02:57:38.922Z,99920.0
2023-12-09T02:59:38.817Z,99930.0
2023-12-09T03:07:38.849Z,99930.0
2023-12-09T03:13:38.839Z,99930.0
2023-12-09T03:15:38.905Z,99930.0
2023-12-09T03:19:38.960Z,99920.0
2023-12-09T03:25:38.856Z,99920.0
2023-12-09T03:27:38.911Z,99920.0
2023-12-09T03:51:38.939Z,99920.0
2023-12-09T03:55:38.868Z,99930.0
2023-12-09T04:09:38.937Z,99930.0
2023-12-09T04:13:38.869Z,99930.0
2023-12-09T04:15:38.929Z,99930.0
2023-12-09T04:23:38.878Z,99930.0
2023-12-09T04:27:38.899Z,99930.0
2023-12-09T04:31:38.903Z,99920.0
2023-12-09T04:33:38.988Z,99920.0
2023-12-09T04:41:38.920Z,99920.0
2023-12-09T04:43:38.901Z,99910.0
2023-12-09T04:45:38.952Z,99910.0
2023-12-09T04:49:39.061Z,99910.0
2023-12-09T04:53:41.340Z,99900.0
2023-12-09T04:57:39.016Z,99900.0
2023-12-09T05:03:38.992Z,99890.0
2023-12-09T05:09:38.927Z,99890.0
2023-12-09T05:11:38.934Z,99890.0
2023-12-09T05:13:38.917Z,99890.0
2023-12-09T05:17:38.983Z,99890.0
2023-12-09T05:27:38.960Z,99870.0
2023-12-09T05:29:40.276Z,99880.0
2023-12-09T05:41:38.946Z,99880.0
2023-12-09T05:43:38.928Z,99880.0
2023-12-09T05:49:39.039Z,99870.0
2023-12-09T05:51:39.019Z,99870.0
2023-12-09T05:55:38.945Z,99870.0
2023-12-09T05:59:38.946Z,99870.0
2023-12-09T06:03:39.028Z,99870.0
2023-12-09T06:07:38.963Z,99880.0
2023-12-09T06:13:38.971Z,99870.0
2023-12-09T06:19:39.093Z,99870.0
2023-12-09T06:21:39.010Z,99860.0
2023-12-09T06:29:38.980Z,99870.0
2023-12-09T06:35:38.997Z,99860.0
2023-12-09T06:37:39.008Z,99870.0
2023-12-09T06:43:38.973Z,99870.0
2023-12-09T06:45:39.012Z,99880.0
2023-12-09T06:47:39.029Z,99880.0
2023-12-09T06:53:39.013Z,99890.0
2023-12-09T06:55:38.985Z,99900.0
2023-12-09T06:57:39.055Z,99900.0
2023-12-09T06:59:38.999Z,99900.0
2023-12-09T07:01:38.993Z,99910.0
2023-12-09T07:03:39.165Z,99910.0
2023-12-09T07:07:39.027Z,99900.0
2023-12-09T07:11:39.007Z,99890.0
2023-12-09T07:13:38.986Z,99890.0
2023-12-09T07:21:39.032Z,99890.0
2023-12-09T07:23:39.008Z,99890.0
2023-12-09T07:25:39.010Z,99890.0
2023-12-09T07:29:39.028Z,99890.0
2023-12-09T07:33:39.154Z,99890.0
2023-12-09T07:41:39.029Z,99880.0
2023-12-09T07:43:40.972Z,99870.0
2023-12-09T07:45:39.065Z,99870.0
2023-12-09T07:47:39.024Z,99870.0
2023-12-09T07:49:39.167Z,99860.0
2023-12-09T07:53:39.032Z,99860.0
2023-12-09T08:09:39.097Z,99870.0
2023-12-09T08:15:39.075Z,99860.0
2023-12-09T08:17:39.057Z,99860.0
2023-12-09T08:19:39.095Z,99860.0
2023-12-09T08:23:39.060Z,99860.0
2023-12-09T08:25:39.081Z,99860.0
2023-12-09T08:29:39.069Z,99860.0
2023-12-09T08:31:39.055Z,99870.0
2023-12-09T08:33:39.228Z,99870.0
2023-12-09T08:39:39.114Z,99880.0
2023-12-09T08:41:39.058Z,99880.0
2023-12-09T08:43:39.091Z,99880.0
2023-12-09T08:45:39.127Z,99880.0
2023-12-09T08:49:39.188Z,99870.0
2023-12-09T08:51:39.218Z,99880.0
2023-12-09T08:55:39.085Z,99870.0
2023-12-09T08:59:39.098Z,99870.0
2023-12-09T09:01:39.100Z,99870.0
2023-12-09T09:09:39.200Z,99870.0
2023-12-09T09:13:39.088Z,99870.0
2023-12-09T09:15:39.169Z,99860.0
2023-12-09T09:19:39.140Z,99850.0
2023-12-09T09:21:39.156Z,99840.0
2023-12-09T09:23:39.068Z,99850.0
2023-12-09T09:25:39.074Z,99840.0
2023-12-09T09:27:39.291Z,99840.0
2023-12-09T09:31:39.097Z,99830.0
2023-12-09T09:33:39.185Z,99830.0
2023-12-09T09:35:39.082Z,99820.0
2023-12-09T09:45:39.173Z,99810.0
2023-12-09T09:47:39.214Z,99820.0
2023-12-09T09:49:39.191Z,99810.0
2023-12-09T09:51:39.171Z,99810.0
2023-12-09T09:55:39.127Z,99810.0
2023-12-09T09:57:39.219Z,99800.0
2023-12-09T09:59:39.090Z,99800.0
2023-12-09T10:03:39.141Z,99800.0
2023-12-09T10:09:39.192Z,99800.0
2023-12-09T10:11:39.104Z,99800.0
2023-12-09T10:13:39.155Z,99790.0
2023-12-09T10:19:39.221Z,99770.0
2023-12-09T10:21:39.129Z,99770.0
2023-12-09T10:23:39.117Z,99760.0
2023-12-09T10:25:39.148Z,99760.0
2023-12-09T10:27:39.146Z,99740.0
2023-12-09T10:29:39.115Z,99740.0
2023-12-09T10:33:39.253Z,99730.0
2023-12-09T10:37:39.170Z,99720.0
2023-12-09T10:41:39.167Z,99710.0
2023-12-09T10:45:39.240Z,99700.0
2023-12-09T10:49:39.227Z,99700.0
2023-12-09T10:51:39.194Z,99690.0
2023-12-09T10:53:39.141Z,99690.0
2023-12-09T10:59:39.193Z,99680.0
2023-12-09T11:03:39.224Z,99680.0
2023-12-09T11:09:39.262Z,99680.0
2023-12-09T11:11:39.177Z,99680.0
2023-12-09T11:13:39.166Z,99680.0
2023-12-09T11:15:39.220Z,99680.0
2023-12-09T11:19:39.233Z,99680.0
2023-12-09T11:21:39.230Z,99670.0
2023-12-09T11:23:41.015Z,99670.0
2023-12-09T11:25:39.237Z,99660.0
2023-12-09T11:27:39.197Z,99650.0
2023-12-09T11:31:39.220Z,99640.0
2023-12-09T11:39:39.211Z,99610.0
2023-12-09T11:41:39.159Z,99610.0
2023-12-09T11:51:39.237Z,99610.0
2023-12-09T11:53:39.185Z,99600.0
2023-12-09T11:59:39.228Z,99580.0
2023-12-09T12:01:39.233Z,99580.0
2023-12-09T12:03:39.258Z,99580.0
2023-12-09T12:05:39.251Z,99580.0
2023-12-09T12:07:39.184Z,99570.0
2023-12-09T12:09:39.251Z,99570.0
2023-12-09T12:11:39.209Z,99570.0
2023-12-09T12:13:39.222Z,99560.0
2023-12-09T12:15:39.242Z,99550.0
2023-12-09T12:17:39.295Z,99550.0
2023-12-09T12:25:39.221Z,99540.0
2023-12-09T12:27:39.245Z,99550.0
2023-12-09T12:39:39.249Z,99530.0
2023-12-09T12:43:39.241Z,99520.0
2023-12-09T12:45:39.276Z,99520.0
2023-12-09T12:49:39.598Z,99510.0
2023-12-09T12:59:39.252Z,99490.0
2023-12-09T13:01:39.311Z,99490.0
2023-12-09T13:05:39.308Z,99480.0
2023-12-09T13:07:39.235Z,99480.0
2023-12-09T13:09:39.265Z,99490.0
2023-12-09T13:11:39.277Z,99480.0
2023-12-09T13:13:39.273Z,99480.0
2023-12-09T13:15:39.406Z,99490.0
2023-12-09T13:17:39.300Z,99480.0
2023-12-09T13:19:39.314Z,99470.0
2023-12-09T13:21:39.348Z,99460.0
2023-12-09T13:25:39.260Z,99440.0
2023-12-09T13:35:39.276Z,99410.0
2023-12-09T13:37:39.284Z,99400.0
2023-12-09T13:39:39.347Z,99390.0
2023-12-09T13:45:39.311Z,99380.0
2023-12-09T13:47:39.423Z,99380.0
2023-12-09T13:49:39.339Z,99370.0
2023-12-09T13:55:39.313Z,99360.0
2023-12-09T14:01:39.374Z,99340.0
2023-12-09T14:05:39.324Z,99340.0
2023-12-09T14:09:39.330Z,99330.0
2023-12-09T14:13:39.286Z,99330.0
2023-12-09T14:19:39.582Z,99330.0
2023-12-09T14:21:39.481Z,99340.0
2023-12-09T14:27:39.407Z,99330.0
2023-12-09T14:29:39.310Z,99330.0
2023-12-09T14:31:39.289Z,99320.0
2023-12-09T14:35:39.375Z,99320.0
2023-12-09T14:43:39.397Z,99320.0
2023-12-09T14:45:39.331Z,99320.0
2023-12-09T14:55:39.329Z,99290.0
2023-12-09T14:57:39.393Z,99290.0
2023-12-09T14:59:39.342Z,99290.0
2023-12-09T15:01:39.395Z,99280.0
2023-12-09T15:03:39.392Z,99280.0
2023-12-09T15:17:39.357Z,99250.0
2023-12-09T15:25:39.366Z,99240.0
2023-12-09T15:35:39.376Z,99200.0
2023-12-09T15:43:39.393Z,99160.0
2023-12-09T15:59:39.368Z,99130.0
2023-12-09T16:01:39.428Z,99120.0
2023-12-09T16:09:44.651Z,99120.0
2023-12-09T16:13:39.374Z,99120.0
2023-12-09T16:27:39.491Z,99110.0
2023-12-09T16:29:39.385Z,99100.0
2023-12-09T16:35:39.390Z,99090.0
2023-12-09T16:37:39.380Z,99090.0
2023-12-09T16:43:39.846Z,99070.0
2023-12-09T16:55:39.435Z,99020.0
2023-12-09T17:13:39.425Z,98990.0
2023-12-09T17:19:39.521Z,98980.0
2023-12-09T17:21:39.437Z,98970.0
2023-12-09T17:23:41.830Z,98970.0
2023-12-09T17:31:42.954Z,98950.0
2023-12-09T17:37:39.470Z,98930.0
2023-12-09T17:43:39.459Z,98910.0
2023-12-09T17:47:39.480Z,98880.0
2023-12-09T17:53:39.449Z,98860.0
2023-12-09T17:55:39.462Z,98850.0
2023-12-09T17:59:39.453Z,98830.0
2023-12-09T18:01:39.517Z,98830.0
2023-12-09T18:07:39.491Z,98810.0
2023-12-09T18:11:39.440Z,98810.0
2023-12-09T18:13:39.482Z,98800.0
2023-12-09T18:15:41.142Z,98790.0
2023-12-09T18:25:39.496Z,98780.0
2023-12-09T18:29:39.482Z,98760.0
2023-12-09T18:31:41.232Z,98760.0
2023-12-09T18:41:39.508Z,98740.0
2023-12-09T18:47:39.533Z,98730.0
2023-12-09T18:59:39.507Z,98710.0
2023-12-09T19:15:41.512Z,98680.0
2023-12-09T19:19:39.692Z,98680.0
2023-12-09T19:21:39.558Z,98670.0
2023-12-09T19:23:39.529Z,98670.0
2023-12-09T19:25:39.483Z,98660.0
2023-12-09T19:47:39.584Z,98610.0
2023-12-09T19:49:39.638Z,98610.0
2023-12-09T19:51:39.583Z,98610.0
2023-12-09T19:53:39.513Z,98610.0
2023-12-09T19:57:39.575Z,98610.0
2023-12-09T20:17:39.564Z,98570.0
2023-12-09T20:25:39.550Z,98560.0
2023-12-09T20:27:39.577Z,98550.0
2023-12-09T20:31:39.575Z,98540.0
2023-12-09T20:35:39.581Z,98530.0
2023-12-09T20:37:39.555Z,98520.0
2023-12-09T20:39:39.617Z,98510.0
2023-12-09T20:53:39.612Z,98490.0
2023-12-09T20:57:39.596Z,98490.0
2023-12-09T21:07:39.622Z,98480.0
2023-12-09T21:15:39.675Z,98470.0
2023-12-09T21:17:39.636Z,98460.0
2023-12-09T21:19:39.729Z,98460.0
2023-12-09T21:25:39.627Z,98450.0
2023-12-09T21:27:39.590Z,98450.0
2023-12-09T21:29:39.600Z,98450.0
2023-12-09T21:31:39.651Z,98450.0
2023-12-09T21:33:39.710Z,98440.0
2023-12-09T21:35:39.628Z,98450.0
2023-12-09T21:41:39.618Z,98430.0
2023-12-09T21:43:39.613Z,98430.0
2023-12-09T21:53:39.604Z,98420.0
2023-12-09T22:01:39.738Z,98420.0
2023-12-09T22:03:39.776Z,98420.0
2023-12-09T22:13:39.652Z,98430.0
2023-12-09T22:19:39.648Z,98420.0
2023-12-09T22:23:39.622Z,98420.0
2023-12-09T22:27:39.700Z,98420.0
2023-12-09T22:29:39.626Z,98420.0
2023-12-09T22:37:39.646Z,98420.0
2023-12-09T22:39:39.781Z,98420.0
2023-12-09T22:41:39.646Z,98430.0
2023-12-09T22:43:39.665Z,98430.0
2023-12-09T22:45:39.744Z,98430.0
2023-12-09T22:49:39.851Z,98420.0
2023-12-09T22:51:39.683Z,98420.0
2023-12-09T22:55:39.660Z,98420.0
2023-12-09T23:01:39.691Z,98420.0
2023-12-09T23:07:39.681Z,98430.0
2023-12-09T23:09:39.747Z,98430.0
2023-12-09T23:11:39.649Z,98430.0
2023-12-09T23:13:39.682Z,98420.0
2023-12-09T23:15:39.682Z,98430.0
2023-12-09T23:17:39.793Z,98420.0
2023-12-09T23:21:39.684Z,98420.0
2023-12-09T23:23:39.665Z,98420.0
2023-12-09T23:25:39.721Z,98410.0
2023-12-09T23:33:39.791Z,98410.0
2023-12-09T23:35:39.663Z,98420.0
2023-12-09T23:37:39.665Z,98410.0
2023-12-09T23:39:39.755Z,98410.0
2023-12-09T23:43:39.682Z,98410.0
2023-12-09T23:45:39.729Z,98400.0
2023-12-09T23:49:39.710Z,98400.0
2023-12-09T23:57:39.808Z,98400.0
2023-12-09T23:59:39.726Z,98390.0
